createdAt,value
2023-04-02T00:02:33.549Z,69.68
2023-04-02T00:05:52.371Z,69.59
2023-04-02T00:09:29.321Z,69.37
2023-04-02T00:12:31.586Z,69.24
2023-04-02T00:15:49.283Z,69.19
2023-04-02T00:18:55.043Z,69.07
2023-04-02T00:22:14.309Z,68.92
2023-04-02T00:25:23.331Z,69.35
2023-04-02T00:28:31.890Z,69.20
2023-04-02T00:31:50.340Z,69.55
2023-04-02T00:35:06.304Z,69.44
2023-04-02T00:38:17.130Z,69.79
2023-04-02T00:41:36.347Z,69.78
2023-04-02T00:44:46.768Z,69.70
2023-04-02T00:47:58.044Z,69.48
2023-04-02T00:51:26.321Z,69.48
2023-04-02T00:54:33.078Z,69.48
2023-04-02T00:57:50.531Z,69.50
2023-04-02T01:00:56.406Z,69.39
2023-04-02T01:04:12.430Z,69.49
2023-04-02T01:07:40.293Z,69.63
2023-04-02T01:11:13.551Z,69.46
2023-04-02T01:14:33.794Z,69.51
2023-04-02T01:18:09.131Z,69.69
2023-04-02T01:21:46.339Z,69.94
2023-04-02T01:24:57.433Z,69.88
2023-04-02T01:28:17.344Z,69.81
2023-04-02T01:31:36.586Z,69.95
2023-04-02T01:34:46.378Z,70.23
2023-04-02T01:38:11.594Z,70.15
2023-04-02T01:41:33.326Z,69.99
2023-04-02T01:44:46.861Z,70.18
2023-04-02T01:47:58.402Z,70.46
2023-04-02T01:51:14.338Z,70.84
2023-04-02T01:54:17.145Z,71.31
2023-04-02T01:57:31.362Z,71.62
2023-04-02T02:00:54.830Z,71.77
2023-04-02T02:04:13.356Z,72.00
2023-04-02T02:07:29.345Z,71.62
2023-04-02T02:10:39.246Z,71.63
2023-04-02T02:13:53.378Z,71.58
2023-04-02T02:17:03.358Z,71.66
2023-04-02T02:20:12.380Z,71.67
2023-04-02T02:23:21.548Z,71.78
2023-04-02T02:26:32.355Z,71.56
2023-04-02T02:29:52.609Z,71.72
2023-04-02T02:33:20.921Z,71.69
2023-04-02T02:36:44.381Z,71.59
2023-04-02T02:40:03.469Z,71.53
2023-04-02T02:43:22.170Z,71.70
2023-04-02T02:46:39.350Z,72.20
2023-04-02T02:49:44.936Z,71.93
2023-04-02T02:53:02.334Z,71.75
2023-04-02T02:56:11.476Z,71.78
2023-04-02T02:59:28.660Z,71.64
2023-04-02T03:02:41.309Z,72.00
2023-04-02T03:05:50.399Z,72.23
2023-04-02T03:09:23.407Z,72.35
2023-04-02T03:12:51.386Z,72.17
2023-04-02T03:16:22.868Z,72.49
2023-04-02T03:19:48.368Z,72.56
2023-04-02T03:23:13.400Z,72.76
2023-04-02T03:26:35.601Z,72.57
2023-04-02T03:29:59.975Z,72.96
2023-04-02T03:33:30.428Z,73.10
2023-04-02T03:36:46.521Z,73.27
2023-04-02T03:40:04.965Z,73.37
2023-04-02T03:43:27.387Z,73.28
2023-04-02T03:46:41.858Z,73.34
2023-04-02T03:50:03.436Z,74.04
2023-04-02T03:53:05.692Z,73.86
2023-04-02T03:56:38.404Z,74.13
2023-04-02T03:59:55.561Z,74.04
2023-04-02T04:03:16.605Z,74.05
2023-04-02T04:06:36.817Z,74.14
2023-04-02T04:09:54.399Z,74.33
2023-04-02T04:13:11.658Z,74.39
2023-04-02T04:16:34.783Z,73.98
2023-04-02T04:20:00.446Z,73.95
2023-04-02T04:23:17.984Z,73.87
2023-04-02T04:26:42.432Z,73.95
2023-04-02T04:29:57.909Z,74.05
2023-04-02T04:33:22.116Z,73.82
2023-04-02T04:36:31.656Z,73.64
2023-04-02T04:39:53.445Z,73.56
2023-04-02T04:43:00.602Z,73.60
2023-04-02T04:46:22.536Z,73.49
2023-04-02T04:49:51.421Z,73.12
2023-04-02T04:53:20.378Z,73.04
2023-04-02T04:56:33.432Z,73.36
2023-04-02T04:59:54.408Z,73.53
2023-04-02T05:03:30.434Z,73.90
2023-04-02T05:06:52.858Z,74.04
2023-04-02T05:10:29.473Z,74.49
2023-04-02T05:14:05.433Z,74.86
2023-04-02T05:17:16.950Z,74.87
2023-04-02T05:20:39.442Z,74.82
2023-04-02T05:23:55.715Z,74.51
2023-04-02T05:27:24.442Z,73.48
2023-04-02T05:30:56.151Z,72.95
2023-04-02T05:34:10.467Z,72.23
2023-04-02T05:37:29.423Z,72.26
2023-04-02T05:40:50.439Z,71.70
2023-04-02T05:44:01.989Z,71.58
2023-04-02T05:47:30.552Z,70.85
2023-04-02T05:50:46.459Z,70.58
2023-04-02T05:54:07.682Z,70.19
2023-04-02T05:57:39.390Z,69.55
2023-04-02T06:01:11.478Z,68.87
2023-04-02T06:04:23.850Z,68.89
2023-04-02T06:08:03.453Z,68.49
2023-04-02T06:11:20.495Z,68.45
2023-04-02T06:14:35.478Z,68.40
2023-04-02T06:17:56.924Z,68.53
2023-04-02T06:20:58.901Z,68.45
2023-04-02T06:24:18.500Z,68.04
2023-04-02T06:27:30.516Z,67.89
2023-04-02T06:30:41.521Z,67.96
2023-04-02T06:33:53.475Z,67.66
2023-04-02T06:37:24.257Z,67.62
2023-04-02T06:40:49.467Z,67.93
2023-04-02T06:44:09.461Z,68.03
2023-04-02T06:47:23.093Z,67.33
2023-04-02T06:50:54.598Z,66.34
2023-04-02T06:54:00.214Z,66.19
2023-04-02T06:57:17.513Z,65.74
2023-04-02T07:00:38.639Z,65.43
2023-04-02T07:03:50.670Z,64.41
2023-04-02T07:07:13.475Z,63.79
2023-04-02T07:10:15.395Z,63.37
2023-04-02T07:13:32.484Z,63.17
2023-04-02T07:16:52.762Z,63.35
2023-04-02T07:20:33.552Z,63.12
2023-04-02T07:23:35.289Z,64.02
2023-04-02T07:26:49.549Z,64.35
2023-04-02T07:30:00.741Z,63.52
2023-04-02T07:33:21.581Z,63.56
2023-04-02T07:36:30.534Z,62.20
2023-04-02T07:39:45.498Z,61.45
2023-04-02T07:42:47.630Z,62.15
2023-04-02T07:46:02.506Z,61.80
2023-04-02T07:49:10.520Z,61.25
2023-04-02T07:52:19.332Z,60.37
2023-04-02T07:55:37.734Z,59.57
2023-04-02T07:58:39.500Z,59.60
2023-04-02T08:01:54.648Z,59.77
2023-04-02T08:05:09.537Z,58.83
2023-04-02T08:08:25.266Z,57.73
2023-04-02T08:11:39.958Z,56.17
2023-04-02T08:14:54.473Z,56.26
2023-04-02T08:18:09.642Z,56.56
2023-04-02T08:21:18.557Z,56.35
2023-04-02T08:24:28.217Z,56.93
2023-04-02T08:27:37.054Z,57.38
2023-04-02T08:30:45.437Z,57.28
2023-04-02T08:33:53.862Z,58.04
2023-04-02T08:37:02.028Z,57.46
2023-04-02T08:40:11.549Z,58.20
2023-04-02T08:43:46.146Z,57.29
2023-04-02T08:46:59.696Z,57.26
2023-04-02T08:50:38.870Z,56.61
2023-04-02T08:53:55.627Z,55.94
2023-04-02T08:57:16.658Z,56.08
2023-04-02T09:00:47.099Z,56.81
2023-04-02T09:03:58.565Z,56.44
2023-04-02T09:07:23.873Z,54.93
2023-04-02T09:10:44.583Z,55.54
2023-04-02T09:14:05.861Z,54.76
2023-04-02T09:17:25.331Z,53.49
2023-04-02T09:20:34.566Z,52.54
2023-04-02T09:23:43.250Z,52.16
2023-04-02T09:26:52.563Z,52.25
2023-04-02T09:30:35.599Z,53.01
2023-04-02T09:33:52.421Z,52.82
2023-04-02T09:37:23.568Z,52.82
2023-04-02T09:40:29.733Z,52.78
2023-04-02T09:43:45.851Z,53.58
2023-04-02T09:46:52.560Z,52.76
2023-04-02T09:50:31.604Z,54.12
2023-04-02T09:53:39.064Z,55.05
2023-04-02T09:57:20.956Z,54.52
2023-04-02T10:00:32.263Z,54.19
2023-04-02T10:03:50.844Z,53.88
2023-04-02T10:07:08.952Z,54.88
2023-04-02T10:10:48.198Z,56.09
2023-04-02T10:14:06.813Z,55.36
2023-04-02T10:17:38.866Z,55.80
2023-04-02T10:24:22.988Z,53.83
2023-04-02T10:27:48.616Z,52.92
2023-04-02T10:31:15.943Z,53.72
2023-04-02T10:34:57.715Z,52.70
2023-04-02T10:38:34.304Z,53.22
2023-04-02T10:45:41.926Z,53.11
2023-04-02T10:49:08.616Z,52.58
2023-04-02T10:52:32.887Z,52.63
2023-04-02T10:55:46.855Z,52.02
2023-04-02T10:59:11.762Z,51.68
2023-04-02T11:02:41.054Z,51.87
2023-04-02T11:06:15.749Z,51.41
2023-04-02T11:09:30.605Z,51.54
2023-04-02T11:12:52.694Z,48.57
2023-04-02T11:15:54.743Z,37.89
2023-04-02T11:19:38.653Z,33.83
2023-04-02T11:22:50.274Z,36.99
2023-04-02T11:26:25.432Z,39.41
2023-04-02T11:29:46.814Z,40.88
2023-04-02T11:32:49.337Z,44.78
2023-04-02T11:36:04.681Z,46.10
2023-04-02T11:39:17.571Z,46.45
2023-04-02T11:42:36.666Z,46.67
2023-04-02T11:46:00.641Z,47.47
2023-04-02T11:49:36.079Z,43.80
2023-04-02T11:52:51.948Z,47.42
2023-04-02T11:56:25.774Z,48.41
2023-04-02T11:59:53.875Z,38.20
2023-04-02T12:03:28.835Z,28.45
2023-04-02T12:07:00.967Z,24.93
2023-04-02T12:10:42.792Z,24.87
2023-04-02T12:13:53.157Z,22.91
2023-04-02T12:17:01.695Z,25.82
2023-04-02T12:20:28.569Z,30.65
2023-04-02T12:24:05.663Z,24.47
2023-04-02T12:30:41.978Z,22.75
2023-04-02T12:34:21.342Z,22.82
2023-04-02T12:38:24.787Z,25.05
2023-04-02T12:41:45.973Z,30.04
2023-04-02T12:51:45.709Z,40.57
2023-04-02T12:54:57.705Z,43.22
2023-04-02T12:58:38.189Z,43.36
2023-04-02T13:01:57.971Z,44.49
2023-04-02T13:05:15.694Z,44.08
2023-04-02T13:08:30.884Z,44.02
2023-04-02T13:11:48.781Z,44.95
2023-04-02T13:15:06.020Z,45.38
2023-04-02T13:18:21.042Z,45.37
2023-04-02T13:21:41.315Z,45.98
2023-04-02T13:24:49.257Z,46.06
2023-04-02T13:27:58.769Z,46.27
2023-04-02T13:31:21.785Z,45.40
2023-04-02T13:34:24.021Z,45.04
2023-04-02T13:37:38.941Z,46.06
2023-04-02T13:40:42.440Z,46.61
2023-04-02T13:44:00.884Z,45.89
2023-04-02T13:50:43.478Z,46.17
2023-04-02T13:53:52.203Z,45.89
2023-04-02T14:00:32.066Z,43.78
2023-04-02T14:03:47.726Z,43.85
2023-04-02T14:07:33.010Z,43.05
2023-04-02T14:10:58.438Z,42.29
2023-04-02T14:14:28.842Z,44.17
2023-04-02T14:18:06.821Z,44.43
2023-04-02T14:21:33.913Z,45.46
2023-04-02T14:25:10.952Z,46.92
2023-04-02T14:28:32.788Z,46.29
2023-04-02T14:32:01.827Z,46.54
2023-04-02T14:35:27.291Z,46.54
2023-04-02T14:38:59.064Z,43.90
2023-04-02T14:42:10.118Z,44.92
2023-04-02T14:45:44.758Z,48.07
2023-04-02T14:49:08.784Z,48.90
2023-04-02T14:52:22.695Z,49.87
2023-04-02T14:55:40.753Z,50.41
2023-04-02T14:58:57.234Z,49.59
2023-04-02T15:02:23.842Z,50.98
2023-04-02T15:05:46.102Z,52.02
2023-04-02T15:09:13.787Z,53.84
2023-04-02T15:12:35.069Z,54.74
2023-04-02T15:15:52.199Z,55.85
2023-04-02T15:19:08.832Z,60.47
2023-04-02T15:22:48.833Z,67.65
2023-04-02T15:26:00.877Z,70.97
2023-04-02T15:29:36.779Z,72.56
2023-04-02T15:32:40.755Z,75.26
2023-04-02T15:36:13.866Z,67.84
2023-04-02T15:39:36.799Z,69.70
2023-04-02T15:42:58.501Z,70.39
2023-04-02T15:46:27.926Z,73.33
2023-04-02T15:50:26.743Z,74.91
2023-04-02T15:53:58.528Z,76.94
2023-04-02T15:57:30.864Z,76.04
2023-04-02T16:00:44.931Z,79.33
2023-04-02T16:04:21.144Z,80.96
2023-04-02T16:11:35.002Z,82.27
2023-04-02T16:14:45.796Z,83.21
2023-04-02T16:18:07.894Z,82.62
2023-04-02T16:24:44.845Z,80.13
2023-04-02T16:28:12.855Z,79.63
2023-04-02T16:31:33.938Z,80.86
2023-04-02T16:35:20.992Z,81.37
2023-04-02T16:38:47.769Z,78.75
2023-04-02T16:42:27.875Z,78.40
2023-04-02T16:46:08.915Z,75.87
2023-04-02T16:49:35.442Z,79.08
2023-04-02T16:52:58.900Z,78.28
2023-04-02T16:56:37.890Z,77.04
2023-04-02T16:59:59.137Z,78.24
2023-04-02T17:04:08.945Z,77.12
2023-04-02T17:11:51.714Z,79.62
2023-04-02T17:15:01.326Z,76.74
2023-04-02T17:18:27.876Z,76.84
2023-04-02T17:21:49.040Z,76.97
2023-04-02T17:25:07.891Z,71.45
2023-04-02T17:36:21.214Z,66.36
2023-04-02T17:39:42.525Z,68.59
2023-04-02T17:46:54.771Z,66.98
2023-04-02T17:50:36.617Z,66.91
2023-04-02T17:54:10.261Z,65.34
2023-04-02T17:57:38.279Z,64.62
2023-04-02T18:01:25.256Z,64.19
2023-04-02T18:04:46.256Z,64.16
2023-04-02T18:08:14.698Z,64.05
2023-04-02T18:11:46.902Z,63.28
2023-04-02T18:15:23.264Z,63.21
2023-04-02T18:18:50.471Z,64.58
2023-04-02T18:22:25.301Z,64.46
2023-04-02T18:25:49.313Z,63.29
2023-04-02T18:29:32.190Z,63.40
2023-04-02T18:33:18.751Z,64.41
2023-04-02T18:36:47.246Z,64.87
2023-04-02T18:40:24.197Z,63.33
2023-04-02T18:43:57.328Z,63.67
2023-04-02T18:47:33.232Z,63.90
2023-04-02T18:50:41.744Z,62.50
2023-04-02T18:53:53.247Z,62.84
2023-04-02T18:57:16.567Z,62.23
2023-04-02T19:00:25.936Z,63.18
2023-04-02T19:03:57.353Z,62.95
2023-04-02T19:07:15.370Z,62.19
2023-04-02T19:10:32.058Z,62.99
2023-04-02T19:13:40.197Z,62.75
2023-04-02T19:17:06.757Z,63.40
2023-04-02T19:20:39.217Z,63.48
2023-04-02T19:24:15.201Z,63.23
2023-04-02T19:27:29.229Z,63.63
2023-04-02T19:31:16.481Z,63.45
2023-04-02T19:34:40.191Z,63.65
2023-04-02T19:38:33.313Z,63.96
2023-04-02T19:41:53.653Z,63.21
2023-04-02T19:45:04.982Z,62.66
2023-04-02T19:48:31.438Z,62.49
2023-04-02T19:51:33.311Z,62.84
2023-04-02T19:54:48.256Z,63.10
2023-04-02T19:57:51.322Z,62.62
2023-04-02T20:01:08.412Z,62.95
2023-04-02T20:04:17.992Z,62.59
2023-04-02T20:07:26.241Z,61.84
2023-04-02T20:10:45.292Z,62.66
2023-04-02T20:13:48.213Z,63.19
2023-04-02T20:17:06.378Z,62.89
2023-04-02T20:20:16.193Z,62.15
2023-04-02T20:23:25.537Z,61.83
2023-04-02T20:26:37.748Z,62.62
2023-04-02T20:29:46.577Z,62.15
2023-04-02T20:33:09.131Z,62.62
2023-04-02T20:36:15.110Z,62.18
2023-04-02T20:39:29.297Z,62.56
2023-04-02T20:42:44.789Z,62.87
2023-04-02T20:45:55.949Z,62.22
2023-04-02T20:49:05.299Z,63.07
2023-04-02T20:52:17.525Z,62.83
2023-04-02T20:55:25.560Z,63.21
2023-04-02T20:58:35.786Z,62.68
2023-04-02T21:01:51.429Z,63.57
2023-04-02T21:04:53.212Z,63.49
2023-04-02T21:08:08.304Z,63.44
2023-04-02T21:11:17.272Z,63.09
2023-04-02T21:14:32.286Z,62.70
2023-04-02T21:17:40.390Z,63.60
2023-04-02T21:21:09.281Z,63.22
2023-04-02T21:24:21.226Z,62.83
2023-04-02T21:27:30.297Z,62.88
2023-04-02T21:30:45.581Z,62.73
2023-04-02T21:34:00.887Z,63.23
2023-04-02T21:37:15.467Z,63.51
2023-04-02T21:40:37.351Z,63.43
2023-04-02T21:43:54.290Z,65.54
2023-04-02T21:47:02.354Z,65.04
2023-04-02T21:50:17.375Z,64.79
2023-04-02T21:53:25.345Z,64.49
2023-04-02T21:56:36.541Z,63.14
2023-04-02T22:03:10.048Z,62.55
2023-04-02T22:06:27.327Z,62.64
2023-04-02T22:09:36.141Z,62.30
2023-04-02T22:12:57.312Z,61.76
2023-04-02T22:16:11.145Z,61.45
2023-04-02T22:19:22.303Z,61.64
2023-04-02T22:25:56.309Z,60.61
2023-04-02T22:29:11.314Z,60.57
2023-04-02T22:32:19.612Z,60.82
2023-04-02T22:35:36.362Z,61.65
2023-04-02T22:38:38.898Z,61.15
2023-04-02T22:41:53.380Z,60.99
2023-04-02T22:45:10.605Z,61.16
2023-04-02T22:48:19.304Z,60.82
2023-04-02T22:51:30.519Z,60.14
2023-04-02T22:54:45.334Z,60.43
2023-04-02T22:57:53.982Z,61.20
2023-04-02T23:01:02.293Z,60.43
2023-04-02T23:04:17.345Z,60.30
2023-04-02T23:07:33.375Z,60.41
2023-04-02T23:10:42.922Z,59.61
2023-04-02T23:13:53.428Z,59.72
2023-04-02T23:17:08.653Z,60.58
2023-04-02T23:20:21.392Z,60.24
2023-04-02T23:23:30.456Z,60.18
2023-04-02T23:26:45.366Z,59.53
2023-04-02T23:29:55.663Z,59.90
2023-04-02T23:33:11.581Z,59.72
2023-04-02T23:36:41.402Z,59.78
2023-04-02T23:39:50.902Z,60.31
2023-04-02T23:42:59.365Z,59.82
2023-04-02T23:46:08.470Z,59.71
2023-04-02T23:49:25.338Z,60.37
2023-04-02T23:52:27.174Z,60.59
2023-04-02T23:55:41.356Z,59.91
2023-04-02T23:58:43.844Z,59.77
